Time;durP1;ratioP1;P1;durP2;ratioP2;P2;SDS_P1;SDS_P2;PMS_P1;PMS_P2;Temp;Humidity;BMP_temperature;BMP_pressure;BME280_temperature;BME280_humidity;BME280_pressure;Samples;Min_cycle;Max_cycle;Signal;HPM_P1;HPM_P2
2022/03/27 00:02:18;;;;;;;22.37;8.47;;;3.70;91.90;;;;;;5015041;28;20212;-87
2022/03/27 00:04:44;;;;;;;26.03;7.63;;;3.70;91.80;;;;;;5032548;28;20201;-90
2022/03/27 00:07:10;;;;;;;20.03;8.07;;;3.60;91.70;;;;;;5014848;28;20216;-88
2022/03/27 00:09:36;;;;;;;15.90;7.57;;;3.60;91.60;;;;;;5032735;28;20231;-89
2022/03/27 00:12:02;;;;;;;21.43;7.50;;;3.60;91.60;;;;;;5015277;28;20264;-89
2022/03/27 00:14:28;;;;;;;152.00;12.67;;;3.60;91.50;;;;;;5014993;28;20231;-89
2022/03/27 00:16:53;;;;;;;290.33;17.80;;;3.50;91.30;;;;;;5032530;28;20192;-90
2022/03/27 00:19:20;;;;;;;41.83;8.90;;;3.50;91.20;;;;;;5035857;28;20173;-89
2022/03/27 00:21:46;;;;;;;22.50;8.53;;;3.50;91.30;;;;;;5018481;28;20177;-90
2022/03/27 00:24:11;;;;;;;62.80;8.70;;;3.50;91.30;;;;;;5036014;28;20196;-89
2022/03/27 00:26:37;;;;;;;47.20;7.40;;;3.50;91.20;;;;;;5018400;28;20678;-89
2022/03/27 00:29:02;;;;;;;193.77;12.63;;;3.60;91.30;;;;;;5018274;28;20201;-89
2022/03/27 00:31:35;;;;;;;157.23;10.60;;;3.40;91.20;;;;;;5018319;28;20176;-89
2022/03/27 00:34:01;;;;;;;181.43;13.53;;;3.40;91.40;;;;;;5018171;28;20176;-89
2022/03/27 00:36:26;;;;;;;220.77;16.20;;;3.40;91.50;;;;;;5018128;28;20181;-90
2022/03/27 00:38:52;;;;;;;230.53;14.43;;;3.30;91.40;;;;;;5018141;28;20177;-89
2022/03/27 00:41:18;;;;;;;114.40;9.30;;;3.30;91.60;;;;;;5018132;28;20654;-90
2022/03/27 00:43:44;;;;;;;89.00;10.27;;;3.30;91.70;;;;;;5035722;28;20595;-90
2022/03/27 00:46:09;;;;;;;197.73;13.60;;;3.30;91.80;;;;;;5035746;28;20250;-89
2022/03/27 00:48:35;;;;;;;209.90;11.63;;;3.30;91.70;;;;;;5017877;28;20242;-89
2022/03/27 00:51:01;;;;;;;170.00;10.70;;;3.30;91.80;;;;;;5017830;28;20203;-90
2022/03/27 00:53:27;;;;;;;187.47;10.80;;;3.30;91.90;;;;;;5017942;28;20624;-89
2022/03/27 00:55:52;;;;;;;196.67;10.67;;;3.30;91.90;;;;;;5017829;28;20693;-90
2022/03/27 00:58:18;;;;;;;9.30;5.43;;;3.30;92.00;;;;;;5017750;28;20230;-90
2022/03/27 01:00:47;;;;;;;79.20;6.87;;;3.40;92.00;;;;;;5017702;28;20176;-89
2022/03/27 01:03:16;;;;;;;118.07;7.80;;;3.30;91.90;;;;;;5017526;28;20204;-89
2022/03/27 01:05:44;;;;;;;452.40;21.10;;;3.30;91.90;;;;;;5017509;28;20239;-90
2022/03/27 01:08:11;;;;;;;536.13;22.60;;;3.20;91.80;;;;;;5018044;28;20207;-90
2022/03/27 01:10:38;;;;;;;251.70;12.77;;;3.20;91.90;;;;;;5020442;28;20568;-90
2022/03/27 01:13:19;;;;;;;450.10;22.53;;;3.20;91.90;;;;;;5017503;28;20325;-90
2022/03/27 01:15:54;;;;;;;382.17;17.43;;;3.10;91.80;;;;;;5017186;28;20216;-89
2022/03/27 01:18:20;;;;;;;273.07;13.23;;;3.10;91.80;;;;;;5035202;28;20164;-90
2022/03/27 01:20:46;;;;;;;148.43;7.83;;;3.00;91.80;;;;;;5017225;28;20259;-89
2022/03/27 01:23:13;;;;;;;213.07;10.90;;;2.90;91.90;;;;;;5035009;28;20169;-89
2022/03/27 01:25:41;;;;;;;235.20;13.67;;;2.90;91.90;;;;;;5016988;28;20585;-90
2022/03/27 01:28:08;;;;;;;180.83;9.60;;;2.80;91.90;;;;;;5017066;28;20607;-90
2022/03/27 01:30:35;;;;;;;173.50;9.13;;;2.80;92.00;;;;;;5016411;28;20184;-92
2022/03/27 01:33:01;;;;;;;164.77;10.23;;;2.70;91.90;;;;;;5035117;28;20169;-89
2022/03/27 01:35:27;;;;;;;236.50;11.10;;;2.80;92.00;;;;;;5017034;28;20227;-90
2022/03/27 01:37:52;;;;;;;284.27;14.37;;;2.80;91.90;;;;;;5017049;28;20172;-90
2022/03/27 01:40:18;;;;;;;201.30;13.57;;;2.80;92.00;;;;;;5017354;28;20559;-90
2022/03/27 01:42:44;;;;;;;137.90;10.07;;;2.90;92.10;;;;;;5016837;28;20234;-90
2022/03/27 01:45:11;;;;;;;230.93;13.07;;;2.90;92.00;;;;;;5016905;28;20210;-89
2022/03/27 01:47:37;;;;;;;295.37;16.97;;;2.90;92.00;;;;;;5016882;28;20192;-90
2022/03/27 01:50:04;;;;;;;180.03;11.00;;;2.80;92.00;;;;;;5016858;28;20715;-91
2022/03/27 01:52:30;;;;;;;11.17;5.47;;;2.80;92.00;;;;;;5034420;28;20169;-90
2022/03/27 01:54:56;;;;;;;20.77;6.67;;;3.00;92.10;;;;;;5016896;28;20207;-90
2022/03/27 01:57:21;;;;;;;15.87;7.00;;;2.90;92.00;;;;;;5016701;28;20176;-90
2022/03/27 01:59:47;;;;;;;16.50;5.43;;;3.00;91.90;;;;;;5016602;28;20234;-91
2022/03/27 02:02:12;;;;;;;9.13;5.37;;;3.00;91.90;;;;;;5016670;28;20176;-90
2022/03/27 02:04:38;;;;;;;29.23;8.00;;;3.00;91.80;;;;;;5034139;28;20200;-90
2022/03/27 02:07:04;;;;;;;53.40;6.83;;;2.80;91.50;;;;;;5034115;28;20201;-90
2022/03/27 02:09:30;;;;;;;12.00;6.90;;;2.50;91.20;;;;;;5016566;28;20597;-90
2022/03/27 02:11:55;;;;;;;9.07;5.70;;;2.50;91.20;;;;;;5034063;28;20180;-89
2022/03/27 02:14:21;;;;;;;31.30;5.73;;;2.50;91.20;;;;;;5016200;28;20200;-90
2022/03/27 02:16:47;;;;;;;43.90;5.87;;;2.40;91.00;;;;;;5016142;28;20286;-90
2022/03/27 02:19:12;;;;;;;28.57;5.43;;;2.30;90.80;;;;;;5016590;28;20547;-90
2022/03/27 02:21:39;;;;;;;5.43;4.30;;;2.10;90.60;;;;;;5033916;28;20183;-90
2022/03/27 02:24:05;;;;;;;34.07;5.17;;;2.10;90.70;;;;;;5016338;28;20235;-91
2022/03/27 02:26:32;;;;;;;5.80;4.90;;;2.20;90.80;;;;;;5016287;28;20200;-90
2022/03/27 02:28:57;;;;;;;8.37;4.30;;;2.20;90.80;;;;;;5016641;28;20186;-90
2022/03/27 02:31:23;;;;;;;6.70;4.03;;;2.10;90.80;;;;;;5034128;28;20168;-90
2022/03/27 02:33:48;;;;;;;5.20;4.40;;;2.20;90.80;;;;;;5015905;28;20637;-91
2022/03/27 02:36:15;;;;;;;8.17;4.80;;;2.30;90.80;;;;;;5015975;28;20233;-91
2022/03/27 02:38:41;;;;;;;5.60;4.70;;;2.30;90.80;;;;;;5015873;28;20183;-90
2022/03/27 02:41:07;;;;;;;5.97;4.20;;;2.30;90.80;;;;;;5016548;28;20181;-91
2022/03/27 02:43:33;;;;;;;14.53;4.67;;;2.40;90.70;;;;;;5016710;28;20188;-91
2022/03/27 02:46:00;;;;;;;9.60;4.97;;;2.30;90.70;;;;;;5015658;28;20208;-91
2022/03/27 02:48:26;;;;;;;8.37;4.40;;;2.30;90.70;;;;;;5015849;28;20176;-91
2022/03/27 02:50:51;;;;;;;8.27;5.10;;;2.40;90.60;;;;;;5015987;28;20184;-90
2022/03/27 02:53:17;;;;;;;9.37;4.27;;;2.30;90.50;;;;;;5015794;28;20267;-91
2022/03/27 02:55:43;;;;;;;8.37;4.40;;;2.30;90.40;;;;;;5015713;28;20222;-91
2022/03/27 02:58:09;;;;;;;29.77;4.53;;;2.30;90.30;;;;;;5033564;28;20601;-91
2022/03/27 03:00:34;;;;;;;14.40;4.73;;;2.20;90.20;;;;;;5016420;28;20191;-90
2022/03/27 03:03:00;;;;;;;8.57;4.70;;;2.10;90.00;;;;;;5015547;28;20554;-91
2022/03/27 03:05:26;;;;;;;11.47;5.53;;;2.10;90.10;;;;;;5015580;28;20200;-91
2022/03/27 03:07:51;;;;;;;13.03;5.60;;;2.10;90.10;;;;;;5015559;28;20230;-90
2022/03/27 03:10:18;;;;;;;31.13;5.83;;;2.10;90.00;;;;;;5015580;28;20172;-90
2022/03/27 03:12:44;;;;;;;27.43;5.43;;;2.10;90.00;;;;;;5015876;28;20210;-90
2022/03/27 03:15:10;;;;;;;31.63;4.63;;;2.10;90.00;;;;;;5015303;28;20206;-90
2022/03/27 03:17:37;;;;;;;31.40;4.40;;;2.00;90.00;;;;;;5015466;28;20184;-91
2022/03/27 03:20:04;;;;;;;5.73;4.20;;;2.00;90.10;;;;;;5015461;28;20175;-90
2022/03/27 03:22:30;;;;;;;28.63;4.50;;;2.10;90.30;;;;;;5015956;28;20212;-90
2022/03/27 03:24:56;;;;;;;59.13;5.50;;;2.20;90.20;;;;;;5015321;28;20200;-90
2022/03/27 03:27:21;;;;;;;63.17;6.50;;;2.00;90.20;;;;;;5015459;28;20533;-91
2022/03/27 03:29:47;;;;;;;12.20;3.90;;;1.90;90.50;;;;;;5015427;28;20270;-90
2022/03/27 03:32:13;;;;;;;19.07;4.73;;;1.90;90.70;;;;;;5015323;28;20230;-90
2022/03/27 03:34:39;;;;;;;28.33;4.97;;;1.80;90.80;;;;;;5015239;28;20293;-91
2022/03/27 03:37:04;;;;;;;22.73;5.73;;;1.80;91.00;;;;;;5015762;28;20173;-91
2022/03/27 03:39:30;;;;;;;37.33;5.77;;;1.70;91.30;;;;;;5015596;28;20222;-91
2022/03/27 03:41:56;;;;;;;66.30;6.57;;;1.80;91.40;;;;;;5015335;28;20698;-91
2022/03/27 03:44:21;;;;;;;52.20;6.20;;;1.80;91.70;;;;;;5015170;28;20201;-90
2022/03/27 03:46:48;;;;;;;49.60;6.53;;;1.70;92.00;;;;;;5015383;28;20512;-90
2022/03/27 03:49:14;;;;;;;72.10;10.70;;;1.80;92.30;;;;;;5015174;28;20553;-90
2022/03/27 03:51:40;;;;;;;33.93;7.70;;;1.90;92.50;;;;;;5032858;28;20166;-91
2022/03/27 03:54:09;;;;;;;103.27;7.80;;;2.10;92.50;;;;;;5018154;28;20666;-90
2022/03/27 03:56:36;;;;;;;99.40;9.30;;;2.10;92.50;;;;;;5019384;28;20561;-90
2022/03/27 03:59:02;;;;;;;87.83;9.10;;;2.20;92.60;;;;;;5019016;28;20553;-91
2022/03/27 04:01:27;;;;;;;138.60;9.93;;;2.20;92.70;;;;;;5018982;28;20186;-90
2022/03/27 04:03:53;;;;;;;162.53;12.73;;;2.20;92.70;;;;;;5019631;28;20248;-91
2022/03/27 04:06:20;;;;;;;15.13;8.40;;;2.30;92.80;;;;;;5018779;28;20198;-90
2022/03/27 04:08:45;;;;;;;16.87;8.03;;;2.30;92.80;;;;;;5018822;28;20575;-91
2022/03/27 04:11:16;;;;;;;134.17;9.70;;;2.40;92.90;;;;;;5019226;28;20353;-90
2022/03/27 04:13:45;;;;;;;96.77;9.70;;;2.50;92.90;;;;;;5019144;28;20168;-90
2022/03/27 04:16:11;;;;;;;91.27;8.00;;;2.50;92.90;;;;;;5018735;28;20585;-91
2022/03/27 04:18:37;;;;;;;77.13;7.80;;;2.40;92.80;;;;;;5036284;28;20178;-90
2022/03/27 04:21:03;;;;;;;124.80;8.77;;;2.50;92.90;;;;;;5018688;28;20188;-91
2022/03/27 04:23:28;;;;;;;105.90;8.67;;;2.50;92.90;;;;;;5018494;28;20206;-91
2022/03/27 04:25:54;;;;;;;98.00;7.93;;;2.50;92.80;;;;;;5018364;28;20249;-91
2022/03/27 04:28:20;;;;;;;27.00;7.80;;;2.40;92.80;;;;;;5018382;28;20175;-90
2022/03/27 04:30:45;;;;;;;65.20;8.97;;;2.50;92.90;;;;;;5019139;28;20173;-91
2022/03/27 04:33:11;;;;;;;144.23;9.87;;;2.50;92.90;;;;;;5018421;28;20179;-91
2022/03/27 04:35:38;;;;;;;121.50;8.40;;;2.60;92.90;;;;;;5036186;28;20192;-89
2022/03/27 04:38:03;;;;;;;107.57;9.50;;;2.50;92.90;;;;;;5018382;28;20219;-90
2022/03/27 04:40:29;;;;;;;107.63;7.97;;;2.50;92.80;;;;;;5019113;28;20215;-92
2022/03/27 04:42:54;;;;;;;127.10;9.37;;;2.40;92.80;;;;;;5018892;28;20179;-90
2022/03/27 04:45:20;;;;;;;65.63;9.77;;;2.40;92.90;;;;;;5018543;28;20263;-90
2022/03/27 04:47:46;;;;;;;64.70;9.20;;;2.50;93.00;;;;;;5017960;28;20180;-90
2022/03/27 04:50:11;;;;;;;54.33;9.77;;;2.50;93.00;;;;;;5035703;28;20183;-90
2022/03/27 04:52:37;;;;;;;157.73;11.47;;;2.60;93.00;;;;;;5018009;28;20258;-92
2022/03/27 04:55:05;;;;;;;97.00;11.47;;;2.70;93.10;;;;;;5018508;28;20195;-91
2022/03/27 04:57:38;;;;;;;53.43;9.93;;;2.70;93.10;;;;;;5035855;28;20260;-92
2022/03/27 05:00:14;;;;;;;16.63;7.30;;;2.80;93.10;;;;;;5018359;28;20170;-91
2022/03/27 05:02:41;;;;;;;43.33;8.77;;;2.80;93.10;;;;;;5018045;28;20171;-90
2022/03/27 05:05:10;;;;;;;56.23;8.83;;;2.80;93.10;;;;;;5019800;28;20279;-91
2022/03/27 05:07:37;;;;;;;267.73;13.10;;;2.80;93.10;;;;;;5021228;28;20264;-90
2022/03/27 05:10:04;;;;;;;404.17;15.83;;;2.80;93.10;;;;;;5020906;28;20276;-91
2022/03/27 05:12:30;;;;;;;361.70;15.07;;;2.80;93.10;;;;;;5021889;28;20566;-91
2022/03/27 05:14:55;;;;;;;195.67;11.47;;;2.90;93.20;;;;;;5021165;28;20234;-90
2022/03/27 05:17:21;;;;;;;314.93;14.13;;;2.90;93.20;;;;;;5021362;28;20191;-92
2022/03/27 05:19:46;;;;;;;175.50;11.07;;;2.80;93.20;;;;;;5020977;28;20203;-91
2022/03/27 05:22:13;;;;;;;69.50;9.03;;;2.80;93.30;;;;;;5020657;28;20190;-92
2022/03/27 05:24:38;;;;;;;433.83;17.13;;;2.90;93.40;;;;;;5037438;28;20678;-92
2022/03/27 05:27:04;;;;;;;315.20;14.30;;;2.90;93.40;;;;;;5019412;28;20240;-92
2022/03/27 05:29:30;;;;;;;153.57;11.23;;;2.90;93.40;;;;;;5019715;28;20221;-92
2022/03/27 05:31:57;;;;;;;150.87;11.73;;;2.90;93.50;;;;;;5019744;28;20177;-92
2022/03/27 05:34:23;;;;;;;179.73;12.73;;;2.90;93.50;;;;;;5018958;28;20200;-92
2022/03/27 05:36:49;;;;;;;278.60;14.70;;;2.90;93.60;;;;;;5019409;28;20180;-92
2022/03/27 05:39:14;;;;;;;459.80;23.10;;;2.90;93.70;;;;;;5019438;28;20230;-92
2022/03/27 05:41:40;;;;;;;323.50;16.33;;;2.90;93.70;;;;;;5040885;28;20172;-91
2022/03/27 05:44:06;;;;;;;113.93;13.53;;;2.90;93.80;;;;;;5020159;28;20233;-92
2022/03/27 05:46:32;;;;;;;133.23;13.43;;;3.00;93.90;;;;;;5020188;28;20232;-91
2022/03/27 05:48:57;;;;;;;147.57;14.70;;;3.00;93.90;;;;;;5019197;28;20179;-91
2022/03/27 05:51:23;;;;;;;107.50;13.70;;;2.90;93.90;;;;;;5020189;28;20184;-92
2022/03/27 05:53:48;;;;;;;105.07;14.17;;;3.00;94.00;;;;;;5036748;28;20585;-92
2022/03/27 05:56:14;;;;;;;128.13;14.80;;;3.00;94.00;;;;;;5018754;28;20275;-89
2022/03/27 05:58:40;;;;;;;101.47;11.77;;;2.90;94.00;;;;;;5036573;28;20237;-92
2022/03/27 06:01:06;;;;;;;95.37;15.33;;;3.00;94.10;;;;;;5019249;28;20179;-91
2022/03/27 06:03:32;;;;;;;97.23;14.83;;;3.00;94.20;;;;;;5019080;28;20191;-92
2022/03/27 06:05:58;;;;;;;131.50;17.67;;;3.00;94.20;;;;;;5018799;28;20205;-92
2022/03/27 06:08:23;;;;;;;57.03;12.37;;;3.10;94.30;;;;;;5019092;28;20187;-92
2022/03/27 06:10:49;;;;;;;87.67;14.60;;;3.00;94.30;;;;;;5018704;28;20179;-91
2022/03/27 06:13:16;;;;;;;92.63;15.70;;;3.10;94.30;;;;;;5018584;28;20176;-92
2022/03/27 06:15:42;;;;;;;92.17;14.47;;;3.20;94.40;;;;;;5018482;28;20691;-92
2022/03/27 06:18:11;;;;;;;84.07;13.87;;;3.30;94.40;;;;;;5018475;28;20176;-92
2022/03/27 06:20:38;;;;;;;162.60;16.60;;;3.30;94.50;;;;;;5019015;28;20723;-91
2022/03/27 06:23:06;;;;;;;127.87;15.93;;;3.30;94.50;;;;;;5018279;28;20533;-91
2022/03/27 06:25:31;;;;;;;160.53;17.17;;;3.40;94.60;;;;;;5018273;28;20203;-91
2022/03/27 06:27:58;;;;;;;90.17;15.80;;;3.30;94.60;;;;;;5019038;28;20261;-93
2022/03/27 06:30:26;;;;;;;113.50;16.63;;;3.40;94.60;;;;;;5018473;28;20181;-92
2022/03/27 06:32:52;;;;;;;159.53;17.37;;;3.40;94.70;;;;;;5018003;28;20226;-92
2022/03/27 06:35:19;;;;;;;119.40;15.17;;;3.50;94.70;;;;;;5018199;28;20686;-92
2022/03/27 06:37:45;;;;;;;107.97;16.17;;;3.50;94.70;;;;;;5018367;28;20188;-92
2022/03/27 06:40:13;;;;;;;165.90;17.03;;;3.60;94.70;;;;;;5017864;28;20311;-91
2022/03/27 06:42:41;;;;;;;73.00;14.93;;;3.50;94.70;;;;;;5017935;28;20785;-92
2022/03/27 06:45:07;;;;;;;97.80;15.73;;;3.60;94.80;;;;;;5017890;28;20196;-92
2022/03/27 06:47:33;;;;;;;122.90;14.50;;;3.50;94.80;;;;;;5018186;28;20238;-92
2022/03/27 06:49:59;;;;;;;107.27;13.93;;;3.40;94.80;;;;;;5018337;28;20212;-91
2022/03/27 06:52:26;;;;;;;166.30;18.20;;;3.50;94.80;;;;;;5018672;28;20173;-92
2022/03/27 06:54:53;;;;;;;126.13;13.23;;;3.60;94.80;;;;;;5018253;28;20191;-92
2022/03/27 06:57:20;;;;;;;99.60;17.13;;;3.60;94.90;;;;;;5017918;28;20173;-92
2022/03/27 07:05:14;;;;;;;96.10;14.73;;;3.60;94.90;;;;;;5040304;28;20227;-92
2022/03/27 07:07:43;;;;;;;164.20;16.80;;;3.50;94.90;;;;;;5021409;28;20171;-90
2022/03/27 07:10:10;;;;;;;86.17;14.77;;;3.60;94.90;;;;;;5017662;28;20194;-91
2022/03/27 07:12:36;;;;;;;81.60;15.63;;;3.60;94.90;;;;;;5017418;28;20190;-91
2022/03/27 07:15:02;;;;;;;88.50;18.83;;;3.50;94.90;;;;;;5017387;28;20199;-90
2022/03/27 07:17:33;;;;;;;91.27;21.83;;;3.50;94.90;;;;;;5018278;28;20337;-92
2022/03/27 07:19:59;;;;;;;97.90;20.30;;;3.80;95.00;;;;;;5017526;28;20172;-91
2022/03/27 07:22:25;;;;;;;126.53;20.57;;;3.90;95.00;;;;;;5017485;28;20180;-91
2022/03/27 07:24:51;;;;;;;111.43;19.37;;;4.00;95.00;;;;;;5017552;28;20674;-91
2022/03/27 07:27:16;;;;;;;94.03;17.93;;;3.80;95.00;;;;;;5034994;28;20188;-90
2022/03/27 07:29:42;;;;;;;96.77;19.43;;;3.80;95.00;;;;;;5020903;28;20176;-90
2022/03/27 07:32:09;;;;;;;112.20;20.47;;;3.80;95.00;;;;;;5020360;28;20649;-90
2022/03/27 07:34:37;;;;;;;112.43;20.60;;;3.70;95.00;;;;;;5019546;28;20198;-90
2022/03/27 07:37:03;;;;;;;128.47;21.10;;;3.80;95.00;;;;;;5019642;28;20264;-90
2022/03/27 07:39:29;;;;;;;106.83;20.07;;;3.80;95.00;;;;;;5037116;28;20176;-90
2022/03/27 07:41:55;;;;;;;128.23;21.03;;;3.70;95.00;;;;;;5020365;28;20570;-89
2022/03/27 07:44:20;;;;;;;134.03;21.50;;;3.80;95.10;;;;;;5021776;28;20577;-90
2022/03/27 07:46:48;;;;;;;81.40;20.27;;;3.80;95.10;;;;;;5024309;28;20200;-90
2022/03/27 07:49:13;;;;;;;122.37;21.23;;;3.80;95.10;;;;;;5042688;28;20228;-89
2022/03/27 07:51:39;;;;;;;105.97;19.83;;;3.80;95.10;;;;;;5020887;28;20204;-91
2022/03/27 07:54:05;;;;;;;175.83;23.73;;;4.00;95.10;;;;;;5020777;28;20184;-91
2022/03/27 07:56:31;;;;;;;128.67;26.53;;;4.10;95.10;;;;;;5020216;28;20180;-90
2022/03/27 07:58:56;;;;;;;154.20;26.70;;;4.10;95.10;;;;;;5019917;28;20525;-91
2022/03/27 08:01:23;;;;;;;55.23;21.97;;;4.40;95.20;;;;;;5020832;28;20184;-90
2022/03/27 08:03:49;;;;;;;103.50;25.43;;;4.30;95.10;;;;;;5037458;28;20635;-90
2022/03/27 08:06:15;;;;;;;55.93;16.40;;;4.30;95.10;;;;;;5019620;28;20691;-91
2022/03/27 08:08:41;;;;;;;89.00;19.00;;;4.40;95.10;;;;;;5020051;28;20181;-90
2022/03/27 08:11:07;;;;;;;111.27;16.73;;;4.20;95.10;;;;;;5019324;28;20203;-90
2022/03/27 08:13:32;;;;;;;103.80;15.93;;;4.40;95.10;;;;;;5019155;28;20177;-90
2022/03/27 08:15:58;;;;;;;57.97;15.73;;;4.50;95.10;;;;;;5001092;28;1043739;-89
2022/03/27 08:18:23;;;;;;;110.43;17.27;;;4.60;95.10;;;;;;5020060;28;20192;-91
2022/03/27 08:20:49;;;;;;;108.20;16.90;;;4.50;95.10;;;;;;5037559;28;20250;-91
2022/03/27 08:23:15;;;;;;;45.17;16.43;;;4.50;95.20;;;;;;5019895;28;20667;-91
2022/03/27 08:28:25;;;;;;;54.23;15.80;;;4.80;95.20;;;;;;5038424;28;20219;-91
2022/03/27 08:30:53;;;;;;;41.60;15.13;;;4.60;95.10;;;;;;5037898;28;20172;-91
2022/03/27 08:33:19;;;;;;;64.27;16.60;;;4.70;95.20;;;;;;5019619;28;20185;-91
2022/03/27 08:35:45;;;;;;;67.17;16.93;;;4.80;95.20;;;;;;5020210;28;20212;-91
2022/03/27 08:38:15;;;;;;;57.20;17.53;;;4.70;95.10;;;;;;5019977;28;20188;-91
2022/03/27 08:40:47;;;;;;;58.43;17.73;;;4.70;95.10;;;;;;5019895;28;20628;-91
2022/03/27 08:43:15;;;;;;;39.97;17.03;;;4.80;95.10;;;;;;5019606;28;20185;-91
2022/03/27 08:45:42;;;;;;;72.37;17.93;;;4.90;95.10;;;;;;5019631;28;20262;-91
2022/03/27 08:48:08;;;;;;;42.57;17.00;;;4.90;95.10;;;;;;5020066;28;20193;-91
2022/03/27 08:50:52;;;;;;;68.83;17.90;;;5.00;95.10;;;;;;5021687;28;20188;-91
2022/03/27 08:53:28;;;;;;;51.23;17.37;;;5.10;95.10;;;;;;5020572;28;20639;-91
2022/03/27 08:55:59;;;;;;;38.90;18.27;;;5.10;95.10;;;;;;5024185;28;20232;-91
2022/03/27 08:58:34;;;;;;;56.07;17.13;;;5.30;95.10;;;;;;5021446;28;20174;-92
2022/03/27 09:01:01;;;;;;;36.03;16.53;;;5.40;95.10;;;;;;5021515;28;20174;-92
2022/03/27 09:03:27;;;;;;;33.63;15.77;;;5.50;95.10;;;;;;5020957;28;20547;-89
2022/03/27 09:05:53;;;;;;;52.13;19.20;;;5.40;95.10;;;;;;5021562;28;20205;-90
2022/03/27 09:08:19;;;;;;;48.63;20.60;;;5.40;95.10;;;;;;5022047;28;20177;-91
2022/03/27 09:10:45;;;;;;;58.27;22.17;;;5.30;95.00;;;;;;5020232;28;20245;-90
2022/03/27 09:13:16;;;;;;;51.93;19.37;;;5.30;95.00;;;;;;5020480;28;20542;-91
2022/03/27 09:15:45;;;;;;;43.87;18.57;;;5.50;95.10;;;;;;5022567;28;20217;-91
2022/03/27 09:18:12;;;;;;;45.83;19.07;;;5.70;95.10;;;;;;5037972;28;20205;-90
2022/03/27 09:20:47;;;;;;;41.30;20.00;;;5.80;95.10;;;;;;5020408;28;20626;-91
2022/03/27 09:23:25;;;;;;;44.20;19.80;;;5.80;95.10;;;;;;5020288;28;20186;-91
2022/03/27 09:25:52;;;;;;;40.73;18.47;;;5.90;95.00;;;;;;5019369;28;20245;-91
2022/03/27 09:28:31;;;;;;;40.80;20.17;;;5.90;95.00;;;;;;5019093;28;20598;-91
2022/03/27 09:31:22;;;;;;;60.40;19.50;;;6.00;95.00;;;;;;5018250;28;20167;-90
2022/03/27 09:33:48;;;;;;;59.47;21.73;;;5.60;94.90;;;;;;5008622;28;20194;-90
2022/03/27 09:36:22;;;;;;;48.70;20.03;;;6.00;94.90;;;;;;5019822;28;20177;-91
2022/03/27 09:39:09;;;;;;;50.00;19.50;;;6.20;95.00;;;;;;5019614;28;20202;-90
2022/03/27 09:41:38;;;;;;;62.37;22.83;;;6.10;94.90;;;;;;5023297;28;20175;-91
2022/03/27 09:44:12;;;;;;;50.57;23.97;;;6.00;94.80;;;;;;5017932;28;20551;-90
2022/03/27 09:47:00;;;;;;;55.37;25.10;;;6.00;94.80;;;;;;5037322;28;20607;-90
2022/03/27 09:49:35;;;;;;;58.67;23.70;;;6.30;94.90;;;;;;5019257;28;20176;-90
2022/03/27 09:52:05;;;;;;;48.33;20.60;;;6.40;94.80;;;;;;5016622;28;20602;-90
2022/03/27 09:54:53;;;;;;;49.83;23.20;;;6.30;94.70;;;;;;5017373;28;20195;-90
2022/03/27 09:57:27;;;;;;;58.97;23.60;;;6.50;94.70;;;;;;5035143;28;20645;-90
2022/03/27 09:59:55;;;;;;;56.17;24.27;;;6.70;94.70;;;;;;5017405;28;20211;-90
2022/03/27 10:02:27;;;;;;;49.03;22.43;;;6.60;94.50;;;;;;5016968;28;20180;-90
2022/03/27 10:05:00;;;;;;;53.23;23.97;;;6.60;94.40;;;;;;5017624;28;20195;-89
2022/03/27 10:07:32;;;;;;;44.47;22.33;;;6.70;94.30;;;;;;5018804;28;20714;-88
2022/03/27 10:09:57;;;;;;;57.53;22.87;;;6.70;94.10;;;;;;5018466;28;20688;-88
2022/03/27 10:12:28;;;;;;;49.57;20.47;;;6.70;94.00;;;;;;5017490;28;20175;-88
2022/03/27 10:15:04;;;;;;;48.20;20.83;;;6.80;93.80;;;;;;5018068;28;20196;-88
2022/03/27 10:17:33;;;;;;;44.33;19.93;;;6.90;93.60;;;;;;5035438;28;20186;-88
2022/03/27 10:20:09;;;;;;;43.67;19.57;;;7.00;93.60;;;;;;5018155;28;20331;-88
2022/03/27 10:22:47;;;;;;;37.83;18.37;;;7.20;93.50;;;;;;5018051;28;20179;-86
2022/03/27 10:25:16;;;;;;;41.77;19.23;;;7.10;93.10;;;;;;5023273;28;20210;-91
2022/03/27 10:27:43;;;;;;;39.30;17.03;;;7.10;92.90;;;;;;5027994;28;20181;-91
2022/03/27 10:30:11;;;;;;;34.97;16.00;;;7.10;92.50;;;;;;5028798;28;20235;-92
2022/03/27 10:32:39;;;;;;;40.70;16.83;;;7.20;92.50;;;;;;5028750;28;20230;-90
2022/03/27 10:35:45;;;;;;;37.07;15.87;;;7.50;92.30;;;;;;5020333;28;20208;-91
2022/03/27 10:38:42;;;;;;;30.60;14.73;;;7.60;92.30;;;;;;5022743;28;20721;-90
2022/03/27 10:41:20;;;;;;;31.73;13.87;;;7.60;91.70;;;;;;5019792;28;20211;-92
2022/03/27 10:43:56;;;;;;;26.50;13.27;;;7.50;91.20;;;;;;5016439;28;20169;-92
2022/03/27 10:46:26;;;;;;;41.50;16.50;;;7.60;91.30;;;;;;5022025;28;20295;-91
2022/03/27 10:48:53;;;;;;;41.80;15.10;;;7.90;91.60;;;;;;5041155;28;20199;-94
2022/03/27 10:51:25;;;;;;;30.73;14.60;;;8.20;91.50;;;;;;5023193;28;20207;-92
2022/03/27 10:54:09;;;;;;;29.97;12.50;;;8.30;91.00;;;;;;5025593;28;20177;-93
2022/03/27 10:56:49;;;;;;;27.30;12.13;;;8.10;90.30;;;;;;5026152;28;20169;-92
2022/03/27 10:59:18;;;;;;;31.50;11.50;;;8.00;90.10;;;;;;5017824;28;20169;-92
2022/03/27 11:02:01;;;;;;;31.30;11.57;;;8.30;90.30;;;;;;5017678;28;20184;-91
2022/03/27 11:04:38;;;;;;;25.83;12.40;;;8.30;89.70;;;;;;5017080;28;20196;-92
2022/03/27 11:07:30;;;;;;;34.63;12.40;;;8.10;89.70;;;;;;5017841;28;20299;-92
2022/03/27 11:09:56;;;;;;;22.07;10.50;;;8.40;90.30;;;;;;5032212;28;20267;-92
2022/03/27 11:12:24;;;;;;;29.30;11.90;;;8.40;89.70;;;;;;5016799;28;20278;-91
2022/03/27 11:14:54;;;;;;;22.17;10.73;;;8.50;89.60;;;;;;5033563;28;20197;-91
2022/03/27 11:18:08;;;;;;;20.53;10.20;;;8.60;89.40;;;;;;5017142;28;20200;-91
2022/03/27 11:20:34;;;;;;;22.40;10.10;;;8.60;88.40;;;;;;4974398;28;20283;-90
2022/03/27 11:23:02;;;;;;;24.47;10.67;;;8.80;88.40;;;;;;5015649;28;20208;-91
2022/03/27 11:25:46;;;;;;;33.30;11.57;;;8.60;88.20;;;;;;5015756;28;20205;-91
2022/03/27 11:28:16;;;;;;;37.83;12.40;;;8.80;88.80;;;;;;5016442;28;20638;-91
2022/03/27 11:30:48;;;;;;;33.93;11.77;;;9.10;88.70;;;;;;5034209;28;20514;-91
2022/03/27 11:33:24;;;;;;;27.67;10.83;;;9.10;88.10;;;;;;5016497;28;20173;-91
2022/03/27 11:36:07;;;;;;;24.90;11.53;;;9.20;87.80;;;;;;5015510;28;20306;-91
2022/03/27 11:38:52;;;;;;;25.70;9.97;;;9.40;87.70;;;;;;5019131;28;20176;-91
2022/03/27 11:41:30;;;;;;;35.70;16.60;;;9.40;87.30;;;;;;5019812;28;20173;-92
2022/03/27 11:44:16;;;;;;;25.27;10.33;;;9.80;87.30;;;;;;5018059;28;20172;-92
2022/03/27 11:46:48;;;;;;;29.83;11.10;;;9.40;86.10;;;;;;5018467;28;20283;-92
2022/03/27 11:49:15;;;;;;;23.70;10.07;;;9.80;87.00;;;;;;5018170;28;20251;-93
2022/03/27 11:51:41;;;;;;;29.23;10.80;;;9.80;85.90;;;;;;5022831;28;20239;-92
2022/03/27 11:54:22;;;;;;;28.93;10.67;;;9.90;85.90;;;;;;5019676;28;20215;-92
2022/03/27 11:57:00;;;;;;;23.40;10.70;;;10.20;85.90;;;;;;5016669;28;20176;-91
2022/03/27 11:59:29;;;;;;;20.40;9.70;;;10.30;85.20;;;;;;5017940;28;20169;-92
2022/03/27 12:01:57;;;;;;;26.20;9.33;;;9.90;84.80;;;;;;5016235;28;20184;-92
2022/03/27 12:04:23;;;;;;;21.40;9.47;;;10.10;83.80;;;;;;5019576;28;20655;-91
2022/03/27 12:07:00;;;;;;;20.13;8.33;;;9.80;85.30;;;;;;5015476;28;20666;-91
2022/03/27 12:09:27;;;;;;;18.70;8.17;;;10.30;85.10;;;;;;5016418;28;20172;-92
2022/03/27 12:12:10;;;;;;;22.80;10.33;;;10.40;84.60;;;;;;5022143;28;20192;-93
2022/03/27 12:14:55;;;;;;;28.83;9.37;;;10.60;83.30;;;;;;5019595;28;20218;-92
2022/03/27 12:17:23;;;;;;;17.53;9.00;;;10.70;82.90;;;;;;5019875;28;20202;-92
2022/03/27 12:20:02;;;;;;;18.80;8.70;;;10.60;83.40;;;;;;5038206;28;20176;-92
2022/03/27 12:22:32;;;;;;;15.30;8.47;;;10.50;82.80;;;;;;5021758;28;20208;-93
2022/03/27 12:24:57;;;;;;;16.97;8.57;;;10.80;82.70;;;;;;5025411;28;20204;-93
2022/03/27 12:30:08;;;;;;;20.50;8.67;;;10.80;82.80;;;;;;5037202;28;20206;-93
2022/03/27 12:32:35;;;;;;;18.23;7.57;;;10.70;82.00;;;;;;5018635;28;20188;-93
2022/03/27 12:35:01;;;;;;;17.10;7.47;;;11.00;81.20;;;;;;5018897;28;20228;-92
2022/03/27 12:37:31;;;;;;;18.20;9.10;;;11.40;81.70;;;;;;5018977;28;20191;-90
2022/03/27 12:39:56;;;;;;;14.77;7.07;;;11.60;80.60;;;;;;5024649;28;20173;-92
2022/03/27 12:42:48;;;;;;;16.87;8.77;;;11.50;79.70;;;;;;5019326;28;20706;-93
2022/03/27 12:45:26;;;;;;;19.80;8.93;;;11.50;81.20;;;;;;5019113;28;20215;-92
2022/03/27 12:47:58;;;;;;;23.40;8.27;;;11.50;80.20;;;;;;5018384;28;20192;-93
2022/03/27 12:50:45;;;;;;;22.73;8.77;;;11.50;80.00;;;;;;5020164;28;20168;-93
2022/03/27 12:53:28;;;;;;;19.07;9.03;;;11.80;79.40;;;;;;5040998;28;20172;-94
2022/03/27 12:56:06;;;;;;;20.60;9.47;;;11.10;80.50;;;;;;5030202;28;20223;-93
2022/03/27 12:58:39;;;;;;;27.13;10.10;;;11.40;81.10;;;;;;5024042;28;20172;-92